sensor_id;sensor_type;location;lat;lon;timestamp;pressure;altitude;pressure_sealevel;temperature;humidity
4326;BME280;58429;49.826;10.880;2023-02-01T00:00:20;98980;;;4.13;85.85
4326;BME280;58429;49.826;10.880;2023-02-01T00:01:20;98986;;;4.13;85.9
4326;BME280;58429;49.826;10.880;2023-02-01T00:02:20;98981;;;4.09;85.99
4326;BME280;58429;49.826;10.880;2023-02-01T00:03:20;98980;;;4.11;86.05
4326;BME280;58429;49.826;10.880;2023-02-01T00:04:20;98974;;;4.09;86.14
4326;BME280;58429;49.826;10.880;2023-02-01T00:05:20;98975;;;4.1;86.16
4326;BME280;58429;49.826;10.880;2023-02-01T00:06:20;98979;;;4.1;86.24
4326;BME280;58429;49.826;10.880;2023-02-01T00:07:20;98983;;;4.09;86.24
4326;BME280;58429;49.826;10.880;2023-02-01T00:08:20;98986;;;4.11;86.34
4326;BME280;58429;49.826;10.880;2023-02-01T00:09:20;98980;;;4.11;86.32
4326;BME280;58429;49.826;10.880;2023-02-01T00:10:20;98972;;;4.09;86.37
4326;BME280;58429;49.826;10.880;2023-02-01T00:11:20;98973;;;4.07;86.35
4326;BME280;58429;49.826;10.880;2023-02-01T00:12:20;98972;;;4.03;86.39
4326;BME280;58429;49.826;10.880;2023-02-01T00:13:20;98971;;;4.06;86.41
4326;BME280;58429;49.826;10.880;2023-02-01T00:14:20;98974;;;4.08;86.51
4326;BME280;58429;49.826;10.880;2023-02-01T00:15:20;98963;;;4.09;86.47
4326;BME280;58429;49.826;10.880;2023-02-01T00:16:20;98965;;;4.06;86.51
4326;BME280;58429;49.826;10.880;2023-02-01T00:17:20;98963;;;4.05;86.61
4326;BME280;58429;49.826;10.880;2023-02-01T00:18:20;98966;;;4.04;86.55
4326;BME280;58429;49.826;10.880;2023-02-01T00:19:20;98963;;;4.08;86.51
4326;BME280;58429;49.826;10.880;2023-02-01T00:20:20;98962;;;4.07;86.52
4326;BME280;58429;49.826;10.880;2023-02-01T00:21:20;98965;;;4.05;86.59
4326;BME280;58429;49.826;10.880;2023-02-01T00:22:20;98967;;;4.06;86.64
4326;BME280;58429;49.826;10.880;2023-02-01T00:23:20;98962;;;4.06;86.72
4326;BME280;58429;49.826;10.880;2023-02-01T00:24:20;98960;;;4.04;86.65
4326;BME280;58429;49.826;10.880;2023-02-01T00:25:20;98957;;;4.07;86.72
4326;BME280;58429;49.826;10.880;2023-02-01T00:26:25;98956;;;4.09;86.76
4326;BME280;58429;49.826;10.880;2023-02-01T00:27:20;98950;;;4.05;86.72
4326;BME280;58429;49.826;10.880;2023-02-01T00:28:20;98946;;;4.03;86.81
4326;BME280;58429;49.826;10.880;2023-02-01T00:29:20;98944;;;4.08;86.84
4326;BME280;58429;49.826;10.880;2023-02-01T00:30:20;98950;;;4.05;86.83
4326;BME280;58429;49.826;10.880;2023-02-01T00:31:20;98944;;;4.06;86.9
4326;BME280;58429;49.826;10.880;2023-02-01T00:32:20;98945;;;4.06;86.93
4326;BME280;58429;49.826;10.880;2023-02-01T00:33:20;98950;;;4.05;86.96
4326;BME280;58429;49.826;10.880;2023-02-01T00:34:20;98947;;;4.06;86.96
4326;BME280;58429;49.826;10.880;2023-02-01T00:35:20;98950;;;4.06;86.96
4326;BME280;58429;49.826;10.880;2023-02-01T00:36:20;98946;;;4.08;86.98
4326;BME280;58429;49.826;10.880;2023-02-01T00:37:20;98944;;;4.08;87.02
4326;BME280;58429;49.826;10.880;2023-02-01T00:38:20;98947;;;4.09;86.93
4326;BME280;58429;49.826;10.880;2023-02-01T00:39:20;98948;;;4.07;86.91
4326;BME280;58429;49.826;10.880;2023-02-01T00:40:20;98945;;;4.11;86.91
4326;BME280;58429;49.826;10.880;2023-02-01T00:41:20;98946;;;4.11;86.94
4326;BME280;58429;49.826;10.880;2023-02-01T00:42:20;98946;;;4.1;86.96
4326;BME280;58429;49.826;10.880;2023-02-01T00:43:21;98945;;;4.1;86.98
4326;BME280;58429;49.826;10.880;2023-02-01T00:44:20;98945;;;4.09;86.97
4326;BME280;58429;49.826;10.880;2023-02-01T00:45:20;98937;;;4.13;86.96
4326;BME280;58429;49.826;10.880;2023-02-01T00:46:20;98946;;;4.1;86.99
4326;BME280;58429;49.826;10.880;2023-02-01T00:47:20;98941;;;4.11;87
4326;BME280;58429;49.826;10.880;2023-02-01T00:48:20;98938;;;4.11;87.04
4326;BME280;58429;49.826;10.880;2023-02-01T00:49:20;98935;;;4.09;87
4326;BME280;58429;49.826;10.880;2023-02-01T00:50:20;98934;;;4.09;87
4326;BME280;58429;49.826;10.880;2023-02-01T00:51:20;98946;;;4.13;87.03
4326;BME280;58429;49.826;10.880;2023-02-01T00:52:20;98944;;;4.12;87.03
4326;BME280;58429;49.826;10.880;2023-02-01T00:53:20;98943;;;4.11;87.04
4326;BME280;58429;49.826;10.880;2023-02-01T00:54:20;98939;;;4.14;87.01
4326;BME280;58429;49.826;10.880;2023-02-01T00:55:20;98941;;;4.14;86.97
4326;BME280;58429;49.826;10.880;2023-02-01T00:56:20;98938;;;4.12;86.98
4326;BME280;58429;49.826;10.880;2023-02-01T00:57:20;98944;;;4.18;86.98
4326;BME280;58429;49.826;10.880;2023-02-01T00:58:20;98941;;;4.17;87
4326;BME280;58429;49.826;10.880;2023-02-01T00:59:20;98939;;;4.13;86.94
4326;BME280;58429;49.826;10.880;2023-02-01T01:00:20;98940;;;4.16;86.91
4326;BME280;58429;49.826;10.880;2023-02-01T01:01:21;98938;;;4.17;86.91
4326;BME280;58429;49.826;10.880;2023-02-01T01:02:20;98935;;;4.22;86.87
4326;BME280;58429;49.826;10.880;2023-02-01T01:03:20;98934;;;4.2;86.77
4326;BME280;58429;49.826;10.880;2023-02-01T01:04:20;98935;;;4.26;86.69
4326;BME280;58429;49.826;10.880;2023-02-01T01:05:20;98935;;;4.25;86.67
4326;BME280;58429;49.826;10.880;2023-02-01T01:06:21;98937;;;4.25;86.65
4326;BME280;58429;49.826;10.880;2023-02-01T01:07:20;98941;;;4.26;86.61
4326;BME280;58429;49.826;10.880;2023-02-01T01:08:20;98933;;;4.26;86.56
4326;BME280;58429;49.826;10.880;2023-02-01T01:09:20;98946;;;4.28;86.52
4326;BME280;58429;49.826;10.880;2023-02-01T01:10:20;98936;;;4.29;86.51
4326;BME280;58429;49.826;10.880;2023-02-01T01:11:21;98932;;;4.29;86.45
4326;BME280;58429;49.826;10.880;2023-02-01T01:12:20;98943;;;4.29;86.46
4326;BME280;58429;49.826;10.880;2023-02-01T01:13:20;98935;;;4.28;86.47
4326;BME280;58429;49.826;10.880;2023-02-01T01:14:20;98939;;;4.29;86.42
4326;BME280;58429;49.826;10.880;2023-02-01T01:15:20;98947;;;4.29;86.45
4326;BME280;58429;49.826;10.880;2023-02-01T01:16:20;98934;;;4.31;86.39
4326;BME280;58429;49.826;10.880;2023-02-01T01:17:20;98931;;;4.3;86.37
4326;BME280;58429;49.826;10.880;2023-02-01T01:18:20;98935;;;4.28;86.35
4326;BME280;58429;49.826;10.880;2023-02-01T01:19:20;98933;;;4.3;86.34
4326;BME280;58429;49.826;10.880;2023-02-01T01:20:20;98935;;;4.31;86.27
4326;BME280;58429;49.826;10.880;2023-02-01T01:21:20;98931;;;4.3;86.2
4326;BME280;58429;49.826;10.880;2023-02-01T01:22:20;98928;;;4.3;86.2
4326;BME280;58429;49.826;10.880;2023-02-01T01:23:20;98929;;;4.34;86.11
4326;BME280;58429;49.826;10.880;2023-02-01T01:24:20;98931;;;4.32;86.06
4326;BME280;58429;49.826;10.880;2023-02-01T01:25:20;98929;;;4.35;86.01
4326;BME280;58429;49.826;10.880;2023-02-01T01:26:20;98939;;;4.32;85.94
4326;BME280;58429;49.826;10.880;2023-02-01T01:27:20;98938;;;4.33;85.97
4326;BME280;58429;49.826;10.880;2023-02-01T01:28:20;98931;;;4.33;85.98
4326;BME280;58429;49.826;10.880;2023-02-01T01:29:20;98933;;;4.33;85.93
4326;BME280;58429;49.826;10.880;2023-02-01T01:30:20;98934;;;4.33;85.87
4326;BME280;58429;49.826;10.880;2023-02-01T01:31:20;98940;;;4.34;85.75
4326;BME280;58429;49.826;10.880;2023-02-01T01:32:20;98934;;;4.35;85.81
4326;BME280;58429;49.826;10.880;2023-02-01T01:33:20;98932;;;4.34;85.79
4326;BME280;58429;49.826;10.880;2023-02-01T01:34:20;98932;;;4.34;85.75
4326;BME280;58429;49.826;10.880;2023-02-01T01:35:20;98942;;;4.33;85.69
4326;BME280;58429;49.826;10.880;2023-02-01T01:36:20;98936;;;4.34;85.75
4326;BME280;58429;49.826;10.880;2023-02-01T01:37:20;98934;;;4.33;85.73
4326;BME280;58429;49.826;10.880;2023-02-01T01:38:20;98942;;;4.33;85.72
4326;BME280;58429;49.826;10.880;2023-02-01T01:39:20;98950;;;4.34;85.66
4326;BME280;58429;49.826;10.880;2023-02-01T01:40:20;98941;;;4.35;85.71
4326;BME280;58429;49.826;10.880;2023-02-01T01:41:21;98940;;;4.36;85.61
4326;BME280;58429;49.826;10.880;2023-02-01T01:42:20;98937;;;4.36;85.67
4326;BME280;58429;49.826;10.880;2023-02-01T01:43:20;98939;;;4.36;85.65
4326;BME280;58429;49.826;10.880;2023-02-01T01:45:23;98937;;;4.36;85.55
4326;BME280;58429;49.826;10.880;2023-02-01T01:45:25;98940;;;4.34;85.61
4326;BME280;58429;49.826;10.880;2023-02-01T01:46:20;98935;;;4.37;85.42
4326;BME280;58429;49.826;10.880;2023-02-01T01:47:20;98941;;;4.35;85.41
4326;BME280;58429;49.826;10.880;2023-02-01T01:48:20;98941;;;4.38;85.47
4326;BME280;58429;49.826;10.880;2023-02-01T01:49:20;98935;;;4.36;85.43
4326;BME280;58429;49.826;10.880;2023-02-01T01:50:21;98932;;;4.39;85.28
4326;BME280;58429;49.826;10.880;2023-02-01T01:51:20;98929;;;4.38;85.18
4326;BME280;58429;49.826;10.880;2023-02-01T01:52:20;98934;;;4.42;85.2
4326;BME280;58429;49.826;10.880;2023-02-01T01:53:21;98930;;;4.39;85.24
4326;BME280;58429;49.826;10.880;2023-02-01T01:54:20;98926;;;4.4;85.29
4326;BME280;58429;49.826;10.880;2023-02-01T01:55:20;98925;;;4.38;85.31
4326;BME280;58429;49.826;10.880;2023-02-01T01:56:20;98925;;;4.39;85.29
4326;BME280;58429;49.826;10.880;2023-02-01T01:57:21;98924;;;4.38;85.12
4326;BME280;58429;49.826;10.880;2023-02-01T01:58:21;98925;;;4.4;85.05
4326;BME280;58429;49.826;10.880;2023-02-01T01:59:20;98925;;;4.42;85.08
4326;BME280;58429;49.826;10.880;2023-02-01T02:00:20;98931;;;4.42;85.04
4326;BME280;58429;49.826;10.880;2023-02-01T02:01:20;98920;;;4.43;85.07
4326;BME280;58429;49.826;10.880;2023-02-01T02:02:20;98924;;;4.42;85.17
4326;BME280;58429;49.826;10.880;2023-02-01T02:03:21;98923;;;4.41;85.16
4326;BME280;58429;49.826;10.880;2023-02-01T02:04:20;98913;;;4.4;85.09
4326;BME280;58429;49.826;10.880;2023-02-01T02:05:20;98912;;;4.39;85.14
4326;BME280;58429;49.826;10.880;2023-02-01T02:06:23;98912;;;4.4;85.16
4326;BME280;58429;49.826;10.880;2023-02-01T02:07:21;98911;;;4.42;85.1
4326;BME280;58429;49.826;10.880;2023-02-01T02:08:20;98916;;;4.38;85.05
4326;BME280;58429;49.826;10.880;2023-02-01T02:09:20;98913;;;4.41;84.88
4326;BME280;58429;49.826;10.880;2023-02-01T02:10:20;98918;;;4.45;84.86
4326;BME280;58429;49.826;10.880;2023-02-01T02:11:20;98918;;;4.43;84.95
4326;BME280;58429;49.826;10.880;2023-02-01T02:12:20;98918;;;4.46;85.06
4326;BME280;58429;49.826;10.880;2023-02-01T02:13:20;98920;;;4.43;85.18
4326;BME280;58429;49.826;10.880;2023-02-01T02:14:20;98914;;;4.43;85.03
4326;BME280;58429;49.826;10.880;2023-02-01T02:15:20;98913;;;4.41;85.1
4326;BME280;58429;49.826;10.880;2023-02-01T02:16:24;98917;;;4.45;85.02
4326;BME280;58429;49.826;10.880;2023-02-01T02:17:23;98919;;;4.45;84.77
4326;BME280;58429;49.826;10.880;2023-02-01T02:18:22;98923;;;4.43;84.94
4326;BME280;58429;49.826;10.880;2023-02-01T02:19:26;98925;;;4.45;84.84
4326;BME280;58429;49.826;10.880;2023-02-01T02:20:22;98918;;;4.45;84.78
4326;BME280;58429;49.826;10.880;2023-02-01T02:21:23;98919;;;4.49;84.9
4326;BME280;58429;49.826;10.880;2023-02-01T02:23:33;98923;;;4.48;84.71
4326;BME280;58429;49.826;10.880;2023-02-01T02:24:32;98922;;;4.48;84.67
4326;BME280;58429;49.826;10.880;2023-02-01T02:25:29;98924;;;4.49;84.71
4326;BME280;58429;49.826;10.880;2023-02-01T02:26:39;98921;;;4.52;84.7
4326;BME280;58429;49.826;10.880;2023-02-01T02:27:21;98928;;;4.51;84.72
4326;BME280;58429;49.826;10.880;2023-02-01T02:28:42;98911;;;4.51;84.73
4326;BME280;58429;49.826;10.880;2023-02-01T02:29:27;98913;;;4.48;84.7
4326;BME280;58429;49.826;10.880;2023-02-01T02:30:39;98913;;;4.53;84.72
4326;BME280;58429;49.826;10.880;2023-02-01T02:31:24;98912;;;4.48;84.79
4326;BME280;58429;49.826;10.880;2023-02-01T02:32:24;98905;;;4.49;84.81
4326;BME280;58429;49.826;10.880;2023-02-01T02:33:54;98914;;;4.5;84.74
4326;BME280;58429;49.826;10.880;2023-02-01T02:34:21;98905;;;4.53;84.73
4326;BME280;58429;49.826;10.880;2023-02-01T02:35:23;98909;;;4.54;84.76
4326;BME280;58429;49.826;10.880;2023-02-01T02:36:23;98908;;;4.53;84.73
4326;BME280;58429;49.826;10.880;2023-02-01T02:37:22;98911;;;4.51;84.71
4326;BME280;58429;49.826;10.880;2023-02-01T02:38:22;98906;;;4.53;84.7
4326;BME280;58429;49.826;10.880;2023-02-01T02:39:21;98902;;;4.5;84.73
4326;BME280;58429;49.826;10.880;2023-02-01T02:40:21;98912;;;4.53;84.6
4326;BME280;58429;49.826;10.880;2023-02-01T02:41:21;98909;;;4.54;84.69
4326;BME280;58429;49.826;10.880;2023-02-01T02:42:22;98899;;;4.55;84.74
4326;BME280;58429;49.826;10.880;2023-02-01T02:43:21;98900;;;4.56;84.79
4326;BME280;58429;49.826;10.880;2023-02-01T02:44:21;98899;;;4.53;84.82
4326;BME280;58429;49.826;10.880;2023-02-01T02:45:21;98900;;;4.53;84.86
4326;BME280;58429;49.826;10.880;2023-02-01T02:46:21;98896;;;4.54;84.84
4326;BME280;58429;49.826;10.880;2023-02-01T02:47:22;98896;;;4.53;84.84
4326;BME280;58429;49.826;10.880;2023-02-01T02:48:20;98888;;;4.54;84.82
4326;BME280;58429;49.826;10.880;2023-02-01T02:49:21;98883;;;4.53;84.84
4326;BME280;58429;49.826;10.880;2023-02-01T02:50:22;98879;;;4.54;84.93
4326;BME280;58429;49.826;10.880;2023-02-01T02:51:20;98883;;;4.5;85.07
4326;BME280;58429;49.826;10.880;2023-02-01T02:52:20;98877;;;4.49;85.16
4326;BME280;58429;49.826;10.880;2023-02-01T02:53:21;98876;;;4.48;85.28
4326;BME280;58429;49.826;10.880;2023-02-01T02:54:21;98879;;;4.48;85.42
4326;BME280;58429;49.826;10.880;2023-02-01T02:55:20;98880;;;4.48;85.45
4326;BME280;58429;49.826;10.880;2023-02-01T02:56:20;98882;;;4.44;85.58
4326;BME280;58429;49.826;10.880;2023-02-01T02:57:20;98879;;;4.46;85.67
4326;BME280;58429;49.826;10.880;2023-02-01T02:58:20;98879;;;4.42;85.72
4326;BME280;58429;49.826;10.880;2023-02-01T02:59:20;98882;;;4.41;85.82
4326;BME280;58429;49.826;10.880;2023-02-01T03:00:21;98878;;;4.42;85.84
4326;BME280;58429;49.826;10.880;2023-02-01T03:01:20;98869;;;4.45;85.89
4326;BME280;58429;49.826;10.880;2023-02-01T03:02:20;98873;;;4.43;86.03
4326;BME280;58429;49.826;10.880;2023-02-01T03:03:20;98875;;;4.39;86.01
4326;BME280;58429;49.826;10.880;2023-02-01T03:04:20;98871;;;4.4;86.06
4326;BME280;58429;49.826;10.880;2023-02-01T03:05:20;98878;;;4.39;86.09
4326;BME280;58429;49.826;10.880;2023-02-01T03:06:22;98875;;;4.38;86.08
4326;BME280;58429;49.826;10.880;2023-02-01T03:07:46;98879;;;4.39;86.18
4326;BME280;58429;49.826;10.880;2023-02-01T03:08:21;98871;;;4.37;86.19
4326;BME280;58429;49.826;10.880;2023-02-01T03:09:21;98876;;;4.37;86.07
4326;BME280;58429;49.826;10.880;2023-02-01T03:10:23;98869;;;4.36;86.07
4326;BME280;58429;49.826;10.880;2023-02-01T03:11:20;98872;;;4.38;86.12
4326;BME280;58429;49.826;10.880;2023-02-01T03:12:20;98866;;;4.36;86.07
4326;BME280;58429;49.826;10.880;2023-02-01T03:13:24;98851;;;4.36;85.99
4326;BME280;58429;49.826;10.880;2023-02-01T03:14:21;98854;;;4.36;85.89
4326;BME280;58429;49.826;10.880;2023-02-01T03:15:20;98854;;;4.36;85.83
4326;BME280;58429;49.826;10.880;2023-02-01T03:16:21;98853;;;4.36;85.78
4326;BME280;58429;49.826;10.880;2023-02-01T03:17:21;98852;;;4.35;85.78
4326;BME280;58429;49.826;10.880;2023-02-01T03:18:22;98851;;;4.35;85.74
4326;BME280;58429;49.826;10.880;2023-02-01T03:19:21;98844;;;4.36;85.62
4326;BME280;58429;49.826;10.880;2023-02-01T03:20:20;98837;;;4.36;85.65
4326;BME280;58429;49.826;10.880;2023-02-01T03:21:21;98838;;;4.34;85.51
4326;BME280;58429;49.826;10.880;2023-02-01T03:22:20;98843;;;4.36;85.35
4326;BME280;58429;49.826;10.880;2023-02-01T03:23:21;98855;;;4.35;85.31
4326;BME280;58429;49.826;10.880;2023-02-01T03:24:21;98857;;;4.35;85.33
4326;BME280;58429;49.826;10.880;2023-02-01T03:25:21;98867;;;4.35;85.37
4326;BME280;58429;49.826;10.880;2023-02-01T03:26:20;98871;;;4.36;85.36
4326;BME280;58429;49.826;10.880;2023-02-01T03:27:21;98878;;;4.36;85.42
4326;BME280;58429;49.826;10.880;2023-02-01T03:28:20;98872;;;4.37;85.46
4326;BME280;58429;49.826;10.880;2023-02-01T03:29:21;98883;;;4.34;85.49
4326;BME280;58429;49.826;10.880;2023-02-01T03:30:21;98868;;;4.34;85.54
4326;BME280;58429;49.826;10.880;2023-02-01T03:31:20;98872;;;4.34;85.5
4326;BME280;58429;49.826;10.880;2023-02-01T03:32:20;98859;;;4.36;85.6
4326;BME280;58429;49.826;10.880;2023-02-01T03:33:21;98866;;;4.34;85.59
4326;BME280;58429;49.826;10.880;2023-02-01T03:34:20;98867;;;4.35;85.63
4326;BME280;58429;49.826;10.880;2023-02-01T03:35:20;98862;;;4.36;85.66
4326;BME280;58429;49.826;10.880;2023-02-01T03:36:21;98870;;;4.34;85.71
4326;BME280;58429;49.826;10.880;2023-02-01T03:37:21;98870;;;4.36;85.75
4326;BME280;58429;49.826;10.880;2023-02-01T03:38:20;98863;;;4.31;85.83
4326;BME280;58429;49.826;10.880;2023-02-01T03:39:21;98857;;;4.33;85.81
4326;BME280;58429;49.826;10.880;2023-02-01T03:40:20;98858;;;4.34;85.82
4326;BME280;58429;49.826;10.880;2023-02-01T03:41:22;98848;;;4.32;85.86
4326;BME280;58429;49.826;10.880;2023-02-01T03:42:21;98847;;;4.32;85.83
4326;BME280;58429;49.826;10.880;2023-02-01T03:43:20;98846;;;4.33;85.79
4326;BME280;58429;49.826;10.880;2023-02-01T03:44:21;98847;;;4.33;85.78
4326;BME280;58429;49.826;10.880;2023-02-01T03:45:21;98843;;;4.33;85.76
4326;BME280;58429;49.826;10.880;2023-02-01T03:46:21;98844;;;4.32;85.72
4326;BME280;58429;49.826;10.880;2023-02-01T03:47:20;98843;;;4.34;85.74
4326;BME280;58429;49.826;10.880;2023-02-01T03:48:20;98846;;;4.33;85.79
4326;BME280;58429;49.826;10.880;2023-02-01T03:49:21;98844;;;4.33;85.78
4326;BME280;58429;49.826;10.880;2023-02-01T03:50:20;98844;;;4.33;85.76
4326;BME280;58429;49.826;10.880;2023-02-01T03:51:20;98843;;;4.33;85.73
4326;BME280;58429;49.826;10.880;2023-02-01T03:52:21;98843;;;4.34;85.73
4326;BME280;58429;49.826;10.880;2023-02-01T03:53:20;98854;;;4.33;85.7
4326;BME280;58429;49.826;10.880;2023-02-01T03:54:20;98851;;;4.34;85.65
4326;BME280;58429;49.826;10.880;2023-02-01T03:55:21;98852;;;4.34;85.66
4326;BME280;58429;49.826;10.880;2023-02-01T03:56:20;98847;;;4.32;85.65
4326;BME280;58429;49.826;10.880;2023-02-01T03:57:27;98842;;;4.33;85.71
4326;BME280;58429;49.826;10.880;2023-02-01T03:58:20;98837;;;4.33;85.67
4326;BME280;58429;49.826;10.880;2023-02-01T03:59:20;98826;;;4.35;85.7
4326;BME280;58429;49.826;10.880;2023-02-01T04:00:21;98830;;;4.32;85.64
4326;BME280;58429;49.826;10.880;2023-02-01T04:01:20;98826;;;4.34;85.69
4326;BME280;58429;49.826;10.880;2023-02-01T04:02:20;98824;;;4.33;85.7
4326;BME280;58429;49.826;10.880;2023-02-01T04:03:20;98823;;;4.33;85.72
4326;BME280;58429;49.826;10.880;2023-02-01T04:04:20;98835;;;4.36;85.76
4326;BME280;58429;49.826;10.880;2023-02-01T04:05:20;98833;;;4.35;85.78
4326;BME280;58429;49.826;10.880;2023-02-01T04:06:20;98830;;;4.34;85.82
4326;BME280;58429;49.826;10.880;2023-02-01T04:07:20;98829;;;4.33;85.79
4326;BME280;58429;49.826;10.880;2023-02-01T04:08:20;98830;;;4.36;85.8
4326;BME280;58429;49.826;10.880;2023-02-01T04:09:20;98832;;;4.36;85.84
4326;BME280;58429;49.826;10.880;2023-02-01T04:10:20;98831;;;4.34;85.77
4326;BME280;58429;49.826;10.880;2023-02-01T04:11:20;98828;;;4.32;85.83
4326;BME280;58429;49.826;10.880;2023-02-01T04:12:20;98830;;;4.33;85.89
4326;BME280;58429;49.826;10.880;2023-02-01T04:13:20;98826;;;4.33;85.99
4326;BME280;58429;49.826;10.880;2023-02-01T04:14:20;98819;;;4.33;86.02
4326;BME280;58429;49.826;10.880;2023-02-01T04:15:20;98823;;;4.31;86.03
4326;BME280;58429;49.826;10.880;2023-02-01T04:16:20;98831;;;4.33;86.04
4326;BME280;58429;49.826;10.880;2023-02-01T04:17:20;98828;;;4.33;86.05
4326;BME280;58429;49.826;10.880;2023-02-01T04:18:20;98834;;;4.32;85.87
4326;BME280;58429;49.826;10.880;2023-02-01T04:19:20;98832;;;4.31;85.82
4326;BME280;58429;49.826;10.880;2023-02-01T04:20:20;98835;;;4.31;85.81
4326;BME280;58429;49.826;10.880;2023-02-01T04:21:20;98837;;;4.33;85.63
4326;BME280;58429;49.826;10.880;2023-02-01T04:22:20;98835;;;4.34;85.62
4326;BME280;58429;49.826;10.880;2023-02-01T04:23:20;98838;;;4.33;85.74
4326;BME280;58429;49.826;10.880;2023-02-01T04:24:20;98841;;;4.31;85.76
4326;BME280;58429;49.826;10.880;2023-02-01T04:25:20;98842;;;4.31;85.71
4326;BME280;58429;49.826;10.880;2023-02-01T04:26:20;98837;;;4.33;85.63
4326;BME280;58429;49.826;10.880;2023-02-01T04:27:20;98836;;;4.3;85.7
4326;BME280;58429;49.826;10.880;2023-02-01T04:28:20;98828;;;4.33;85.79
4326;BME280;58429;49.826;10.880;2023-02-01T04:29:20;98840;;;4.32;85.81
4326;BME280;58429;49.826;10.880;2023-02-01T04:30:20;98840;;;4.27;85.86
4326;BME280;58429;49.826;10.880;2023-02-01T04:31:20;98838;;;4.29;86
4326;BME280;58429;49.826;10.880;2023-02-01T04:32:20;98842;;;4.3;86.02
4326;BME280;58429;49.826;10.880;2023-02-01T04:33:20;98844;;;4.3;86.05
4326;BME280;58429;49.826;10.880;2023-02-01T04:34:20;98852;;;4.27;86.02
4326;BME280;58429;49.826;10.880;2023-02-01T04:35:20;98847;;;4.27;86.05
4326;BME280;58429;49.826;10.880;2023-02-01T04:36:20;98844;;;4.25;85.85
4326;BME280;58429;49.826;10.880;2023-02-01T04:37:20;98842;;;4.25;85.89
4326;BME280;58429;49.826;10.880;2023-02-01T04:38:20;98847;;;4.25;85.95
4326;BME280;58429;49.826;10.880;2023-02-01T04:39:20;98842;;;4.26;85.87
4326;BME280;58429;49.826;10.880;2023-02-01T04:40:20;98843;;;4.22;86.01
4326;BME280;58429;49.826;10.880;2023-02-01T04:41:20;98842;;;4.23;86.05
4326;BME280;58429;49.826;10.880;2023-02-01T04:42:20;98845;;;4.22;86.09
4326;BME280;58429;49.826;10.880;2023-02-01T04:43:20;98847;;;4.21;86.09
4326;BME280;58429;49.826;10.880;2023-02-01T04:44:20;98845;;;4.24;86.21
4326;BME280;58429;49.826;10.880;2023-02-01T04:45:20;98839;;;4.19;86.11
4326;BME280;58429;49.826;10.880;2023-02-01T04:46:20;98828;;;4.2;86.07
4326;BME280;58429;49.826;10.880;2023-02-01T04:47:20;98835;;;4.17;86.05
4326;BME280;58429;49.826;10.880;2023-02-01T04:48:20;98836;;;4.21;86.1
4326;BME280;58429;49.826;10.880;2023-02-01T04:49:20;98833;;;4.2;86.14
4326;BME280;58429;49.826;10.880;2023-02-01T04:50:20;98831;;;4.17;85.95
4326;BME280;58429;49.826;10.880;2023-02-01T04:51:20;98826;;;4.17;85.94
4326;BME280;58429;49.826;10.880;2023-02-01T04:52:20;98828;;;4.19;86.02
4326;BME280;58429;49.826;10.880;2023-02-01T04:53:20;98827;;;4.16;85.94
4326;BME280;58429;49.826;10.880;2023-02-01T04:54:20;98831;;;4.2;85.66
4326;BME280;58429;49.826;10.880;2023-02-01T04:55:20;98834;;;4.16;85.61
4326;BME280;58429;49.826;10.880;2023-02-01T04:56:20;98829;;;4.17;85.71
4326;BME280;58429;49.826;10.880;2023-02-01T04:57:20;98836;;;4.21;85.81
4326;BME280;58429;49.826;10.880;2023-02-01T04:58:20;98829;;;4.17;85.83
4326;BME280;58429;49.826;10.880;2023-02-01T04:59:20;98831;;;4.16;85.71
4326;BME280;58429;49.826;10.880;2023-02-01T05:00:20;98832;;;4.15;85.71
4326;BME280;58429;49.826;10.880;2023-02-01T05:01:20;98831;;;4.17;85.76
4326;BME280;58429;49.826;10.880;2023-02-01T05:02:20;98828;;;4.16;85.8
4326;BME280;58429;49.826;10.880;2023-02-01T05:03:20;98821;;;4.16;85.89
4326;BME280;58429;49.826;10.880;2023-02-01T05:04:20;98833;;;4.13;85.95
4326;BME280;58429;49.826;10.880;2023-02-01T05:05:20;98825;;;4.15;85.95
4326;BME280;58429;49.826;10.880;2023-02-01T05:06:20;98823;;;4.17;85.88
4326;BME280;58429;49.826;10.880;2023-02-01T05:07:20;98821;;;4.14;85.8
4326;BME280;58429;49.826;10.880;2023-02-01T05:08:20;98822;;;4.15;85.78
4326;BME280;58429;49.826;10.880;2023-02-01T05:09:20;98829;;;4.17;85.73
4326;BME280;58429;49.826;10.880;2023-02-01T05:10:20;98826;;;4.16;85.8
4326;BME280;58429;49.826;10.880;2023-02-01T05:11:20;98829;;;4.14;85.75
4326;BME280;58429;49.826;10.880;2023-02-01T05:12:20;98829;;;4.15;85.71
4326;BME280;58429;49.826;10.880;2023-02-01T05:13:20;98830;;;4.16;85.79
4326;BME280;58429;49.826;10.880;2023-02-01T05:14:20;98826;;;4.16;85.79
4326;BME280;58429;49.826;10.880;2023-02-01T05:15:20;98826;;;4.13;85.83
4326;BME280;58429;49.826;10.880;2023-02-01T05:16:20;98830;;;4.17;85.91
4326;BME280;58429;49.826;10.880;2023-02-01T05:17:20;98829;;;4.11;85.91
4326;BME280;58429;49.826;10.880;2023-02-01T05:18:20;98824;;;4.13;85.81
4326;BME280;58429;49.826;10.880;2023-02-01T05:19:20;98822;;;4.15;85.77
4326;BME280;58429;49.826;10.880;2023-02-01T05:20:20;98821;;;4.19;85.8
4326;BME280;58429;49.826;10.880;2023-02-01T05:21:20;98817;;;4.16;85.8
4326;BME280;58429;49.826;10.880;2023-02-01T05:22:20;98824;;;4.17;85.77
4326;BME280;58429;49.826;10.880;2023-02-01T05:23:20;98815;;;4.17;85.74
4326;BME280;58429;49.826;10.880;2023-02-01T05:24:20;98822;;;4.14;85.76
4326;BME280;58429;49.826;10.880;2023-02-01T05:25:20;98814;;;4.17;85.77
4326;BME280;58429;49.826;10.880;2023-02-01T05:26:20;98817;;;4.19;85.76
4326;BME280;58429;49.826;10.880;2023-02-01T05:27:20;98811;;;4.18;85.79
4326;BME280;58429;49.826;10.880;2023-02-01T05:28:20;98809;;;4.22;85.69
4326;BME280;58429;49.826;10.880;2023-02-01T05:29:20;98811;;;4.18;85.72
4326;BME280;58429;49.826;10.880;2023-02-01T05:30:20;98811;;;4.21;85.76
4326;BME280;58429;49.826;10.880;2023-02-01T05:31:20;98802;;;4.2;85.71
4326;BME280;58429;49.826;10.880;2023-02-01T05:32:20;98808;;;4.21;85.7
4326;BME280;58429;49.826;10.880;2023-02-01T05:33:20;98804;;;4.21;85.73
4326;BME280;58429;49.826;10.880;2023-02-01T05:34:20;98810;;;4.18;85.73
4326;BME280;58429;49.826;10.880;2023-02-01T05:35:20;98801;;;4.21;85.59
4326;BME280;58429;49.826;10.880;2023-02-01T05:36:20;98794;;;4.23;85.58
4326;BME280;58429;49.826;10.880;2023-02-01T05:37:20;98796;;;4.21;85.58